Time;durP1;ratioP1;P1;durP2;ratioP2;P2;SDS_P1;SDS_P2;PMS_P1;PMS_P2;Temp;Humidity;BMP_temperature;BMP_pressure;BME280_temperature;BME280_humidity;BME280_pressure;Samples;Min_cycle;Max_cycle;Signal;HPM_P1;HPM_P2
2022/06/15 00:01:33;;;;;;;9.70;6.82;;;;;;;30.49;72.32;100820.22;5060122;28;69264;-38
2022/06/15 00:04:04;;;;;;;21.20;6.38;;;;;;;30.63;67.04;100825.56;5056931;28;66477;-39
2022/06/15 00:06:40;;;;;;;16.57;5.93;;;;;;;30.27;67.36;100757.50;5044873;28;69803;-39
2022/06/15 00:09:11;;;;;;;9.73;6.20;;;;;;;30.81;66.45;100833.75;5063281;28;66541;-38
2022/06/15 00:11:44;;;;;;;8.07;6.07;;;;;;;30.94;66.26;100844.47;5068442;28;70238;-38
2022/06/15 00:14:18;;;;;;;10.80;6.05;;;;;;;31.03;66.89;100842.31;5070429;28;66385;-38
2022/06/15 00:16:50;;;;;;;7.90;6.70;;;;;;;31.12;67.08;100851.84;5051787;28;69764;-38
2022/06/15 00:19:22;;;;;;;13.65;6.97;;;;;;;31.16;67.46;100846.78;5059164;28;66430;-39
2022/06/15 00:21:54;;;;;;;8.55;6.88;;;;;;;31.26;67.72;100846.28;5051094;28;70195;-40
2022/06/15 00:24:25;;;;;;;12.80;7.13;;;;;;;31.32;68.15;100845.41;5050619;28;66039;-40
2022/06/15 00:26:56;;;;;;;13.13;7.07;;;;;;;31.40;68.33;100847.84;5062643;27;70770;-39
2022/06/15 00:29:27;;;;;;;8.68;6.43;;;;;;;31.50;67.54;100858.16;5046075;28;65993;-40
2022/06/15 00:31:58;;;;;;;7.30;6.60;;;;;;;31.51;67.45;100866.06;5047295;28;69385;-40
2022/06/15 00:34:29;;;;;;;7.35;6.63;;;;;;;31.58;67.83;100866.81;5059358;28;65614;-40
2022/06/15 00:37:01;;;;;;;7.10;6.50;;;;;;;31.58;67.37;100861.41;5043657;28;70127;-39
2022/06/15 00:39:32;;;;;;;8.93;6.22;;;;;;;31.67;67.65;100870.06;5055979;28;65515;-40
2022/06/15 00:42:04;;;;;;;7.55;6.85;;;;;;;31.43;71.82;100846.56;5057472;28;70766;-40
2022/06/15 00:44:38;;;;;;;6.20;5.60;;;;;;;31.58;69.61;100872.25;5056522;28;65927;-40
2022/06/15 00:47:12;;;;;;;9.50;5.70;;;;;;;31.61;68.41;100866.34;5064632;28;70244;-40
2022/06/15 00:50:02;;;;;;;5.57;4.97;;;;;;;31.27;69.16;100828.97;5055362;28;66702;-40
2022/06/15 00:52:41;;;;;;;5.93;5.22;;;;;;;31.71;68.68;100886.72;5051027;28;70595;-40
2022/06/15 00:55:41;;;;;;;6.45;5.43;;;;;;;31.59;68.68;100879.34;5054395;27;66709;-40
2022/06/15 00:58:14;;;;;;;5.40;4.90;;;;;;;31.74;67.61;100881.66;5046225;28;70326;-40
2022/06/15 01:00:47;;;;;;;4.82;4.43;;;;;;;31.79;67.19;100881.81;5061492;28;66738;-40
2022/06/15 01:03:18;;;;;;;5.32;4.82;;;;;;;31.85;66.88;100893.66;5056505;28;70050;-44
2022/06/15 01:06:26;;;;;;;5.07;4.68;;;;;;;31.70;67.63;100866.88;5059856;28;66809;-40
2022/06/15 01:09:13;;;;;;;6.30;4.82;;;;;;;31.91;66.86;100892.78;5058144;28;70292;-39
2022/06/15 01:12:03;;;;;;;5.47;4.97;;;;;;;31.87;67.46;100891.50;5057675;28;65308;-40
2022/06/15 01:15:12;;;;;;;6.10;4.63;;;;;;;31.74;67.66;100891.69;5056265;28;69377;-39
2022/06/15 01:17:52;;;;;;;6.55;4.55;;;;;;;31.96;66.83;100898.34;5065563;28;66114;-39
2022/06/15 01:20:43;;;;;;;4.60;4.20;;;;;;;32.00;65.99;100902.25;5049989;28;69353;-39
2022/06/15 01:23:38;;;;;;;4.82;4.43;;;;;;;31.86;66.73;100895.28;5058477;28;65721;-39
2022/06/15 01:26:14;;;;;;;8.20;4.53;;;;;;;32.04;65.41;100898.03;5064865;27;70134;-39
2022/06/15 01:29:13;;;;;;;5.13;4.43;;;;;;;32.03;65.24;100900.97;5054386;28;66636;-39
2022/06/15 01:31:55;;;;;;;4.47;4.07;;;;;;;31.67;65.31;100837.50;5027118;28;69809;-40
2022/06/15 01:34:25;;;;;;;;;;;;;;;31.73;66.45;100904.44;5044907;28;65593;-39
2022/06/15 01:37:05;;;;;;;4.70;3.67;;;;;;;32.07;64.81;100906.75;5047711;28;70387;-39
2022/06/15 01:40:12;;;;;;;4.80;4.40;;;;;;;32.01;65.00;100909.34;5053344;28;66647;-39
2022/06/15 01:42:51;;;;;;;3.75;3.47;;;;;;;32.12;64.51;100904.19;5046419;28;69894;-39
2022/06/15 01:45:30;;;;;;;4.65;4.25;;;;;;;32.20;64.18;100917.44;5032320;28;65885;-40
2022/06/15 01:48:05;;;;;;;4.07;3.72;;;;;;;31.51;64.12;100798.31;5043643;28;70229;-39
2022/06/15 01:50:39;;;;;;;6.80;3.67;;;;;;;32.01;63.98;100871.38;5043331;27;65758;-40
2022/06/15 01:53:44;;;;;;;4.07;3.70;;;;;;;32.16;64.06;100925.22;5042705;28;70562;-43
2022/06/15 01:56:28;;;;;;;3.75;3.53;;;;;;;31.90;63.70;100863.97;5053667;27;65872;-39
2022/06/15 01:59:05;;;;;;;3.17;2.85;;;;;;;31.96;63.33;100868.50;5042869;28;70455;-40
2022/06/15 02:01:39;;;;;;;4.05;3.60;;;;;;;32.38;63.48;100930.19;5044553;28;65330;-39
2022/06/15 02:04:18;;;;;;;4.32;3.67;;;;;;;32.41;63.06;100927.00;5046911;28;70130;-40
2022/06/15 02:07:36;;;;;;;3.55;3.25;;;;;;;32.30;63.50;100933.22;5050838;28;65729;-40
2022/06/15 02:10:22;;;;;;;3.47;3.17;;;;;;;32.46;62.76;100928.00;5039620;28;70034;-40
2022/06/15 02:13:02;;;;;;;4.43;3.20;;;;;;;32.49;62.54;100922.09;5039069;28;66513;-39
2022/06/15 02:15:40;;;;;;;3.33;3.03;;;;;;;32.29;62.12;100878.09;5050169;28;69333;-40
2022/06/15 02:18:16;;;;;;;3.55;3.25;;;;;;;32.26;62.17;100873.94;5049350;28;66429;-39
2022/06/15 02:21:00;;;;;;;3.00;2.80;;;;;;;32.59;62.23;100928.84;5041953;28;69636;-39
2022/06/15 02:23:34;;;;;;;3.25;2.78;;;;;;;32.59;62.05;100923.44;5042479;28;66195;-39
2022/06/15 02:26:06;;;;;;;3.10;2.90;;;;;;;32.62;61.82;100925.69;5053729;28;70495;-39
2022/06/15 02:28:47;;;;;;;3.22;2.92;;;;;;;32.60;61.83;100914.25;5056222;28;66791;-41
2022/06/15 02:31:19;;;;;;;3.20;2.70;;;;;;;32.65;61.54;100925.22;5036819;28;69718;-39
2022/06/15 02:33:54;;;;;;;2.72;2.53;;;;;;;31.92;61.72;100791.31;5037712;28;64471;-39
2022/06/15 02:36:26;;;;;;;2.92;2.72;;;;;;;32.71;61.53;100924.31;5039986;28;70010;-42
2022/06/15 02:38:58;;;;;;;3.00;2.70;;;;;;;32.72;61.39;100923.25;5068879;28;65784;-42
2022/06/15 02:41:32;;;;;;;2.58;2.33;;;;;;;32.66;61.46;100905.97;5058245;28;70157;-39
2022/06/15 02:44:09;;;;;;;2.58;2.38;;;;;;;32.80;60.99;100920.19;5057755;28;66724;-39
2022/06/15 02:46:45;;;;;;;5.28;2.45;;;;;;;32.82;60.90;100934.38;5056302;28;70541;-40
2022/06/15 02:49:18;;;;;;;2.58;2.38;;;;;;;32.83;61.05;100914.28;5055956;28;65714;-39
2022/06/15 02:51:56;;;;;;;3.47;3.00;;;;;;;32.85;60.65;100904.03;5055071;27;69419;-45
2022/06/15 02:54:43;;;;;;;2.63;2.42;;;;;;;32.55;60.71;100848.94;5060458;28;65320;-39
2022/06/15 02:57:18;;;;;;;3.40;2.50;;;;;;;32.91;60.71;100903.09;5062398;27;70033;-44
2022/06/15 02:59:50;;;;;;;2.35;2.15;;;;;;;32.93;60.59;100903.69;5048583;28;65761;-39
2022/06/15 03:02:24;;;;;;;2.80;2.50;;;;;;;32.94;60.58;100910.75;5054481;28;70051;-45
2022/06/15 03:04:55;;;;;;;;;;;;;;;32.63;61.22;100911.06;5048696;28;66138;-41
2022/06/15 03:07:26;;;;;;;2.83;2.25;;;;;;;32.94;60.63;100904.50;5056789;28;69105;-40
2022/06/15 03:09:59;;;;;;;6.20;2.45;;;;;;;32.96;60.63;100898.81;5047254;28;65440;-39
2022/06/15 03:12:31;;;;;;;4.78;2.22;;;;;;;32.97;60.52;100900.50;5042487;28;69605;-40
2022/06/15 03:15:03;;;;;;;9.13;2.70;;;;;;;32.92;60.26;100893.84;5058789;28;65365;-40
2022/06/15 03:17:34;;;;;;;4.38;2.55;;;;;;;32.92;60.43;100891.16;5060623;28;70279;-39
2022/06/15 03:20:10;;;;;;;11.35;2.90;;;;;;;32.59;60.18;100839.25;5061571;28;66309;-40
2022/06/15 03:22:45;;;;;;;5.75;2.33;;;;;;;32.97;60.22;100901.31;5048201;28;70476;-40
2022/06/15 03:25:21;;;;;;;4.07;2.53;;;;;;;32.90;60.62;100896.00;5057124;28;65356;-40
2022/06/15 03:27:53;;;;;;;2.70;2.25;;;;;;;32.93;60.41;100887.38;5052887;28;70185;-40
2022/06/15 03:30:28;;;;;;;4.47;2.78;;;;;;;32.96;60.83;100893.38;5045261;28;66419;-39
2022/06/15 03:33:06;;;;;;;2.95;2.55;;;;;;;32.98;60.36;100891.28;5051344;28;69641;-39
2022/06/15 03:35:42;;;;;;;3.33;2.38;;;;;;;33.00;60.28;100895.44;5054023;28;66317;-41
2022/06/15 03:38:19;;;;;;;2.83;2.28;;;;;;;33.03;60.23;100889.53;5061142;28;69407;-40
2022/06/15 03:41:02;;;;;;;4.57;2.30;;;;;;;32.97;60.28;100879.59;5032604;28;65902;-39
2022/06/15 03:43:34;;;;;;;3.67;2.42;;;;;;;33.04;60.13;100890.34;5052041;28;69407;-43
2022/06/15 03:46:06;;;;;;;3.75;2.53;;;;;;;33.06;59.94;100890.97;5057816;28;66216;-40
2022/06/15 03:48:40;;;;;;;3.75;2.33;;;;;;;33.05;60.02;100892.03;5053488;28;69938;-40
2022/06/15 03:51:11;;;;;;;3.00;2.33;;;;;;;33.07;60.08;100898.03;5047758;28;66043;-40
2022/06/15 03:53:54;;;;;;;2.92;2.58;;;;;;;33.07;59.79;100884.44;5042662;28;69510;-40
2022/06/15 03:56:47;;;;;;;4.10;2.63;;;;;;;33.00;60.05;100883.75;5055641;28;66348;-39
2022/06/15 03:59:32;;;;;;;2.28;2.08;;;;;;;33.05;59.71;100868.41;5048258;28;70547;-41
2022/06/15 04:02:18;;;;;;;2.40;2.20;;;;;;;33.16;60.03;100877.63;5037705;28;65387;-40
2022/06/15 04:04:49;;;;;;;2.87;2.10;;;;;;;33.15;60.03;100881.38;5036644;28;70731;-40
2022/06/15 04:10:15;;;;;;;2.95;2.35;;;;;;;33.21;59.68;100864.16;5050289;28;70070;-40
2022/06/15 04:12:47;;;;;;;2.95;2.10;;;;;;;33.08;59.64;100842.66;5045175;28;66066;-40
2022/06/15 04:15:18;;;;;;;;;;;;;;;32.87;60.41;100858.41;5054258;28;70746;-40
2022/06/15 04:17:54;;;;;;;2.75;2.20;;;;;;;33.19;59.78;100860.84;5037525;28;64378;-39
2022/06/15 04:20:42;;;;;;;2.38;2.22;;;;;;;33.25;59.35;100854.44;5053874;28;69491;-40
2022/06/15 04:23:27;;;;;;;3.42;2.45;;;;;;;33.28;59.24;100843.09;5057746;28;66501;-39
2022/06/15 04:26:02;;;;;;;2.67;2.10;;;;;;;33.29;59.41;100842.06;5053637;28;69870;-40
2022/06/15 04:28:45;;;;;;;3.20;1.85;;;;;;;33.33;59.15;100845.09;5050636;28;65645;-41
2022/06/15 04:31:29;;;;;;;2.00;1.80;;;;;;;33.35;59.53;100845.72;5054657;28;69253;-40
2022/06/15 04:34:01;;;;;;;3.60;2.03;;;;;;;33.36;59.42;100829.13;5041800;28;65814;-40
2022/06/15 04:36:33;;;;;;;2.05;1.92;;;;;;;33.42;59.10;100829.25;5049928;28;70441;-40
2022/06/15 04:39:08;;;;;;;1.92;1.80;;;;;;;33.45;59.07;100837.75;5048129;28;66477;-40
2022/06/15 04:41:43;;;;;;;1.88;1.77;;;;;;;33.42;59.01;100826.53;5045944;28;70024;-39
2022/06/15 04:44:14;;;;;;;2.50;2.30;;;;;;;33.47;58.97;100823.94;5056696;28;66048;-40
2022/06/15 04:46:50;;;;;;;3.20;1.85;;;;;;;33.52;58.92;100826.75;5026820;28;70205;-40
2022/06/15 04:49:23;;;;;;;2.97;2.00;;;;;;;33.44;58.63;100799.94;5043304;28;65724;-39
2022/06/15 04:51:55;;;;;;;3.70;2.72;;;;;;;33.51;58.86;100804.16;5038110;28;70575;-40
2022/06/15 04:54:26;;;;;;;;;;;;;;;33.23;59.42;100813.06;5040137;28;66469;-41
2022/06/15 04:57:01;;;;;;;2.15;1.70;;;;;;;33.48;58.92;100791.03;5055180;28;69928;-43
2022/06/15 04:59:32;;;;;;;1.85;1.40;;;;;;;33.57;58.85;100794.25;5040631;28;66051;-40
2022/06/15 05:02:06;;;;;;;2.08;1.88;;;;;;;33.63;58.56;100793.31;5041966;28;69510;-40
2022/06/15 05:04:42;;;;;;;2.63;2.00;;;;;;;33.66;58.44;100795.53;5049557;28;66797;-40
2022/06/15 05:07:15;;;;;;;4.47;1.60;;;;;;;33.69;58.37;100789.59;5056058;28;69904;-39
2022/06/15 05:09:47;;;;;;;2.37;1.70;;;;;;;33.69;58.72;100777.91;5065481;28;65021;-41
2022/06/15 05:12:19;;;;;;;2.00;1.90;;;;;;;33.71;58.40;100776.59;5062631;27;70236;-39
2022/06/15 05:14:51;;;;;;;3.92;1.67;;;;;;;33.67;58.27;100775.41;5055274;28;66211;-40
2022/06/15 05:17:24;;;;;;;2.17;1.80;;;;;;;33.33;58.34;100715.44;5059165;28;69799;-40
2022/06/15 05:19:55;;;;;;;4.00;1.90;;;;;;;33.77;58.24;100786.50;5048684;28;65719;-40
2022/06/15 05:22:33;;;;;;;1.98;1.88;;;;;;;33.81;58.18;100786.84;5061580;28;70241;-40
2022/06/15 05:25:08;;;;;;;1.75;1.60;;;;;;;33.76;58.06;100763.06;5044465;28;66292;-41
2022/06/15 05:27:39;;;;;;;2.25;1.67;;;;;;;33.87;58.18;100779.59;5055165;28;70184;-40
2022/06/15 05:30:11;;;;;;;1.88;1.60;;;;;;;33.78;57.79;100755.50;5050226;28;65802;-40
2022/06/15 05:32:42;;;;;;;2.00;1.80;;;;;;;33.94;57.98;100774.84;5059390;28;69399;-41
2022/06/15 05:35:16;;;;;;;1.98;1.60;;;;;;;33.94;57.60;100759.34;5029173;28;65355;-41
2022/06/15 05:37:47;;;;;;;3.40;1.57;;;;;;;33.97;57.43;100755.31;5042822;28;70440;-40
2022/06/15 05:40:19;;;;;;;1.95;1.58;;;;;;;34.05;57.96;100760.38;5041850;28;65834;-39
2022/06/15 05:42:51;;;;;;;1.55;1.45;;;;;;;34.06;57.75;100751.13;5041126;28;70282;-40
2022/06/15 05:45:22;;;;;;;1.40;1.20;;;;;;;34.12;57.79;100743.88;5062378;28;66207;-40
2022/06/15 05:47:54;;;;;;;2.10;1.30;;;;;;;34.15;57.40;100744.22;5061784;27;70349;-41
2022/06/15 05:50:38;;;;;;;1.67;1.58;;;;;;;34.08;57.27;100732.66;5061304;28;65776;-40
2022/06/15 05:53:19;;;;;;;1.90;1.48;;;;;;;34.20;57.31;100736.13;5048597;28;70381;-39
2022/06/15 05:55:50;;;;;;;2.10;1.63;;;;;;;34.24;57.04;100740.03;5065969;28;65093;-40
2022/06/15 05:58:21;;;;;;;1.95;1.50;;;;;;;34.26;57.23;100745.22;5057531;28;70799;-39
2022/06/15 06:00:52;;;;;;;1.90;1.20;;;;;;;34.28;57.13;100734.91;5064518;28;68142;-39
2022/06/15 06:03:22;;;;;;;1.95;1.40;;;;;;;34.32;56.83;100717.00;5067066;28;70498;-40
2022/06/15 06:05:53;;;;;;;2.77;1.47;;;;;;;34.36;57.19;100710.00;5057443;28;65833;-39
2022/06/15 06:08:24;;;;;;;1.83;1.45;;;;;;;34.41;56.87;100701.91;5048236;28;69876;-40
2022/06/15 06:10:54;;;;;;;2.20;1.70;;;;;;;34.45;56.65;100704.94;5040140;28;65293;-40
2022/06/15 06:13:25;;;;;;;3.47;1.23;;;;;;;34.48;56.67;100693.56;5056922;28;70144;-40
2022/06/15 06:15:56;;;;;;;4.80;1.58;;;;;;;34.52;57.13;100688.41;5071291;28;66692;-40
2022/06/15 06:18:27;;;;;;;1.87;1.63;;;;;;;34.52;56.87;100667.47;5073166;28;71197;-40
2022/06/15 06:20:58;;;;;;;1.67;1.40;;;;;;;34.57;56.52;100675.72;5068438;28;65949;-40
2022/06/15 06:23:28;;;;;;;1.77;1.40;;;;;;;34.51;56.56;100660.38;5048363;28;69429;-40
2022/06/15 06:26:00;;;;;;;4.20;1.38;;;;;;;34.55;56.60;100669.69;5046878;28;65830;-40
2022/06/15 06:28:33;;;;;;;2.13;1.48;;;;;;;34.28;56.46;100623.28;5046060;28;69097;-40
2022/06/15 06:31:05;;;;;;;4.53;1.67;;;;;;;34.67;56.08;100669.63;5046871;28;66335;-40
2022/06/15 06:33:37;;;;;;;2.85;1.48;;;;;;;34.69;56.80;100676.47;5064670;28;70301;-41
2022/06/15 06:36:22;;;;;;;7.82;1.77;;;;;;;34.56;56.21;100649.59;5075623;28;65829;-41
2022/06/15 06:38:53;;;;;;;1.13;1.00;;;;;;;34.76;56.13;100664.56;5052578;28;70315;-40
2022/06/15 06:41:26;;;;;;;3.73;1.23;;;;;;;34.36;56.07;100592.09;5077516;28;65640;-41
2022/06/15 06:44:06;;;;;;;3.17;1.35;;;;;;;34.85;56.14;100660.31;5052590;28;69393;-40
2022/06/15 06:46:41;;;;;;;3.88;1.45;;;;;;;34.89;56.06;100656.00;5071315;27;66290;-40
2022/06/15 06:49:13;;;;;;;2.92;1.50;;;;;;;34.91;55.65;100648.41;5052004;28;70941;-40
2022/06/15 06:51:45;;;;;;;3.35;1.65;;;;;;;34.94;55.84;100653.34;5057727;28;65965;-39
2022/06/15 06:54:20;;;;;;;2.58;1.38;;;;;;;34.62;55.99;100602.25;5043863;28;70139;-40
2022/06/15 06:56:52;;;;;;;2.10;1.48;;;;;;;34.57;55.41;100588.56;5041155;28;67024;-41
2022/06/15 06:59:29;;;;;;;3.08;1.52;;;;;;;34.96;55.70;100648.47;5041328;28;69655;-39
2022/06/15 07:02:00;;;;;;;5.07;1.45;;;;;;;34.96;55.74;100647.63;5041170;28;65645;-40
2022/06/15 07:04:31;;;;;;;7.57;1.80;;;;;;;34.93;55.54;100657.13;5062283;28;70108;-40
2022/06/15 07:07:02;;;;;;;2.23;1.40;;;;;;;34.97;55.85;100655.56;5057463;27;68114;-38
2022/06/15 07:09:33;;;;;;;1.97;1.20;;;;;;;34.97;55.75;100652.84;5046560;28;71124;-39
2022/06/15 07:12:05;;;;;;;1.92;1.20;;;;;;;34.99;55.29;100656.13;5056680;28;66672;-40
2022/06/15 07:14:35;;;;;;;4.05;1.63;;;;;;;34.98;55.60;100654.47;5062834;28;69804;-40
2022/06/15 07:17:06;;;;;;;1.87;1.50;;;;;;;34.99;55.20;100644.41;5074388;28;66546;-40
2022/06/15 07:19:44;;;;;;;4.07;1.70;;;;;;;34.93;55.37;100647.06;5072852;28;69755;-41
2022/06/15 07:22:15;;;;;;;2.93;1.40;;;;;;;34.93;55.27;100629.88;5075284;28;66433;-41
2022/06/15 07:24:45;;;;;;;3.45;1.88;;;;;;;34.95;55.60;100627.75;5066530;28;70804;-42
2022/06/15 07:27:18;;;;;;;1.77;1.52;;;;;;;34.99;55.63;100647.94;5042842;28;65240;-40
2022/06/15 07:29:48;;;;;;;2.17;1.77;;;;;;;34.99;55.58;100638.94;5058072;28;69966;-40
2022/06/15 07:32:19;;;;;;;3.50;1.75;;;;;;;34.98;55.63;100638.13;5041569;28;65488;-41
2022/06/15 07:34:50;;;;;;;3.38;1.85;;;;;;;34.88;55.60;100611.59;5045349;28;69443;-40
2022/06/15 07:37:21;;;;;;;3.97;1.85;;;;;;;34.91;55.27;100616.53;5063565;28;66309;-39
2022/06/15 07:40:14;;;;;;;2.50;1.55;;;;;;;34.97;55.88;100646.56;5063793;28;70205;-40
2022/06/15 07:42:45;;;;;;;2.85;1.70;;;;;;;34.98;55.63;100651.75;5072040;28;65990;-40
2022/06/15 07:45:17;;;;;;;4.00;1.20;;;;;;;34.97;55.26;100666.47;5061717;28;70489;-39
2022/06/15 07:50:38;;;;;;;4.07;1.77;;;;;;;34.97;55.37;100658.31;5064572;28;69600;-39
2022/06/15 07:53:11;;;;;;;;;;;;;;;34.65;56.25;100661.69;5067594;27;65794;-40
2022/06/15 07:55:45;;;;;;;4.05;2.00;;;;;;;34.51;55.53;100614.06;5069458;28;70319;-40
2022/06/15 07:58:16;;;;;;;1.98;1.67;;;;;;;34.93;55.40;100678.94;5067055;27;66528;-40
2022/06/15 08:00:49;;;;;;;3.65;2.53;;;;;;;34.93;55.61;100684.41;5061093;28;70141;-39
2022/06/15 08:03:21;;;;;;;2.85;1.77;;;;;;;34.91;55.47;100687.41;5056673;27;66865;-40
2022/06/15 08:05:51;;;;;;;;;;;;;;;34.61;56.15;100671.44;5067167;28;69595;-40
2022/06/15 08:08:25;;;;;;;3.17;1.95;;;;;;;34.88;55.79;100676.16;5043443;28;66090;-40
2022/06/15 08:10:56;;;;;;;2.60;2.40;;;;;;;34.87;55.85;100677.25;5047999;28;69852;-39
2022/06/15 08:13:26;;;;;;;8.35;2.83;;;;;;;34.86;56.18;100668.25;5053123;28;66217;-40
2022/06/15 08:15:58;;;;;;;2.58;2.38;;;;;;;34.41;56.06;100605.78;5051537;28;70579;-40
2022/06/15 08:18:32;;;;;;;3.42;3.00;;;;;;;34.84;55.79;100664.13;5050546;28;65949;-40
2022/06/15 08:21:07;;;;;;;4.90;3.10;;;;;;;34.82;56.27;100658.09;5050466;28;70117;-40
2022/06/15 08:23:41;;;;;;;4.63;2.75;;;;;;;34.80;56.40;100662.97;5055371;28;65945;-40
2022/06/15 08:26:16;;;;;;;4.10;3.03;;;;;;;34.66;57.01;100633.38;5048843;28;70236;-40
2022/06/15 08:28:52;;;;;;;3.35;3.05;;;;;;;34.77;56.45;100653.41;5044836;28;66383;-41
2022/06/15 08:31:23;;;;;;;3.28;2.97;;;;;;;34.75;56.64;100650.13;5051499;28;69545;-41
2022/06/15 08:33:54;;;;;;;6.40;3.60;;;;;;;34.65;57.28;100639.88;5056872;28;66266;-40
2022/06/15 08:36:24;;;;;;;4.90;4.15;;;;;;;34.71;57.34;100654.41;5053319;28;69293;-40
2022/06/15 08:38:56;;;;;;;3.30;3.00;;;;;;;34.65;57.21;100639.88;5056687;28;65832;-41
2022/06/15 08:41:51;;;;;;;3.60;3.30;;;;;;;34.57;57.52;100643.03;5043528;28;69830;-40
2022/06/15 08:44:51;;;;;;;4.28;3.50;;;;;;;34.61;56.94;100637.94;5054353;28;65866;-41
2022/06/15 08:47:50;;;;;;;3.73;3.13;;;;;;;34.52;57.20;100623.91;5056871;28;69958;-39
2022/06/15 08:50:43;;;;;;;2.80;2.60;;;;;;;34.51;57.23;100614.06;5049173;28;66071;-41
2022/06/15 08:53:25;;;;;;;3.47;3.17;;;;;;;34.15;57.67;100540.06;5050942;28;71012;-41
2022/06/15 08:56:41;;;;;;;6.35;3.08;;;;;;;34.42;57.60;100602.78;5063035;28;66324;-39
2022/06/15 08:59:50;;;;;;;3.15;2.95;;;;;;;34.48;57.45;100601.78;5067179;28;70305;-40
2022/06/15 09:02:46;;;;;;;3.70;3.40;;;;;;;34.51;57.40;100605.91;5066584;28;65365;-40
2022/06/15 09:05:29;;;;;;;4.10;3.67;;;;;;;34.51;57.32;100595.00;5057797;28;69376;-40
2022/06/15 09:08:00;;;;;;;3.60;3.30;;;;;;;34.50;57.92;100587.91;5039389;28;66311;-39
2022/06/15 09:10:52;;;;;;;4.03;3.30;;;;;;;34.37;57.78;100582.81;5053336;28;70416;-40
2022/06/15 09:13:31;;;;;;;4.43;3.75;;;;;;;34.44;58.03;100578.03;5070588;28;66462;-39
2022/06/15 09:16:11;;;;;;;3.80;3.50;;;;;;;34.43;57.90;100585.34;5056968;28;70349;-40
2022/06/15 09:18:45;;;;;;;4.72;3.90;;;;;;;34.21;57.91;100551.84;5069376;28;66219;-40
2022/06/15 09:21:30;;;;;;;5.00;3.53;;;;;;;34.39;57.58;100592.41;5070552;28;69331;-39
2022/06/15 09:24:14;;;;;;;3.35;3.05;;;;;;;34.37;57.69;100593.72;5059426;28;66710;-40
2022/06/15 09:26:52;;;;;;;7.60;3.55;;;;;;;34.33;57.60;100587.16;5044477;28;70215;-40
2022/06/15 09:29:31;;;;;;;4.43;4.03;;;;;;;34.39;57.53;100597.03;5046268;28;65836;-39
2022/06/15 09:32:17;;;;;;;5.32;3.72;;;;;;;34.31;57.67;100601.00;5045217;28;69943;-40
2022/06/15 09:35:20;;;;;;;3.80;3.50;;;;;;;33.94;57.83;100551.72;5044453;28;66111;-40
2022/06/15 09:37:54;;;;;;;4.35;3.38;;;;;;;34.34;57.59;100618.72;5046326;28;70645;-40
2022/06/15 09:40:56;;;;;;;3.58;3.28;;;;;;;34.22;58.50;100625.09;5045566;28;66129;-40
2022/06/15 09:43:46;;;;;;;5.32;3.92;;;;;;;34.17;58.58;100622.28;5057114;28;69932;-40
2022/06/15 09:46:48;;;;;;;3.83;3.53;;;;;;;33.75;58.34;100542.97;5046988;28;66747;-43
2022/06/15 09:49:37;;;;;;;3.70;3.35;;;;;;;34.24;58.47;100612.06;5050407;28;70296;-40
2022/06/15 09:52:37;;;;;;;4.03;3.60;;;;;;;33.99;58.61;100582.53;5047931;28;65282;-39
2022/06/15 09:55:24;;;;;;;6.00;3.58;;;;;;;33.86;58.54;100554.84;5051839;28;70228;-39
2022/06/15 09:57:56;;;;;;;4.78;3.47;;;;;;;34.23;58.13;100610.41;5041952;28;66516;-40
2022/06/15 10:00:28;;;;;;;4.32;3.78;;;;;;;34.20;58.29;100613.63;5045312;28;70285;-40
2022/06/15 10:03:04;;;;;;;5.80;3.75;;;;;;;34.23;58.29;100624.03;5051216;28;66269;-44
2022/06/15 10:05:40;;;;;;;4.18;3.72;;;;;;;34.23;58.18;100621.28;5058416;28;70362;-40
2022/06/15 10:08:14;;;;;;;3.97;3.78;;;;;;;33.83;58.20;100556.16;5048301;28;66082;-39
2022/06/15 10:10:53;;;;;;;5.05;3.75;;;;;;;33.97;58.17;100581.13;5040950;28;69782;-40
2022/06/15 10:13:36;;;;;;;5.30;3.58;;;;;;;34.16;58.04;100626.09;5040778;28;66109;-40
2022/06/15 10:16:30;;;;;;;5.93;3.58;;;;;;;33.95;58.83;100608.59;5035380;28;70233;-42
2022/06/15 10:19:10;;;;;;;4.57;4.03;;;;;;;34.11;58.15;100623.31;5039888;28;65779;-39
2022/06/15 10:21:42;;;;;;;4.28;3.97;;;;;;;34.12;58.51;100624.94;5041663;28;70763;-40
2022/06/15 10:24:35;;;;;;;3.90;3.60;;;;;;;34.06;58.67;100636.00;5042189;28;66151;-41
2022/06/15 10:27:24;;;;;;;5.28;3.72;;;;;;;34.01;58.87;100636.72;5038319;27;69366;-41
2022/06/15 10:30:00;;;;;;;4.05;3.78;;;;;;;33.70;58.59;100573.63;5044353;28;67034;-43
2022/06/15 10:32:31;;;;;;;7.65;3.67;;;;;;;34.00;59.27;100645.94;5049838;28;70194;-42
2022/06/15 10:35:15;;;;;;;6.55;5.95;;;;;;;33.85;60.67;100657.41;5057276;28;65863;-40
2022/06/15 10:38:01;;;;;;;11.07;7.05;;;;;;;33.25;61.38;100603.53;5049206;28;70236;-41
2022/06/15 10:40:36;;;;;;;11.88;7.22;;;;;;;33.49;62.14;100669.50;5033929;28;63658;-41
2022/06/15 10:43:25;;;;;;;7.22;6.57;;;;;;;33.49;62.66;100686.66;5045493;27;70157;-40
2022/06/15 10:46:04;;;;;;;9.40;6.75;;;;;;;32.96;62.93;100622.53;5052429;28;66097;-39
2022/06/15 10:48:45;;;;;;;8.40;7.15;;;;;;;33.31;63.62;100695.81;5049245;28;70705;-41
2022/06/15 10:51:31;;;;;;;7.37;6.67;;;;;;;33.10;64.10;100680.19;5041284;28;66240;-40
2022/06/15 10:54:17;;;;;;;9.88;7.55;;;;;;;33.15;64.37;100705.56;5048538;28;70344;-40
2022/06/15 11:02:46;;;;;;;7.28;6.55;;;;;;;33.11;64.69;100711.72;5044900;28;65426;-41
2022/06/15 11:05:20;;;;;;;9.77;7.22;;;;;;;33.11;64.51;100717.97;5042110;28;70034;-40
2022/06/15 11:07:55;;;;;;;8.65;7.95;;;;;;;33.11;64.55;100730.75;5038316;28;65733;-40
2022/06/15 11:10:32;;;;;;;9.13;8.20;;;;;;;33.09;65.06;100735.56;5050205;28;70193;-42
2022/06/15 11:13:37;;;;;;;15.25;9.02;;;;;;;32.82;65.57;100719.75;5041118;28;65382;-41
2022/06/15 11:19:27;;;;;;;13.40;9.95;;;;;;;32.90;65.70;100716.69;5047077;28;66660;-42
2022/06/15 11:22:15;;;;;;;15.25;10.23;;;;;;;32.60;65.52;100673.38;5049817;28;70360;-41
2022/06/15 11:25:01;;;;;;;14.30;10.27;;;;;;;33.01;65.67;100744.09;5044525;28;65991;-41
2022/06/15 11:27:48;;;;;;;14.70;10.27;;;;;;;32.64;65.42;100679.13;5047901;28;70917;-42
2022/06/15 11:30:31;;;;;;;15.60;10.30;;;;;;;32.95;65.43;100729.53;5045132;28;66695;-41
2022/06/15 11:33:21;;;;;;;;;;;;;;;32.68;66.12;100740.91;5034919;28;70077;-41
2022/06/15 11:35:56;;;;;;;11.05;9.82;;;;;;;32.95;65.48;100745.84;5037501;28;65078;-41
2022/06/15 11:38:49;;;;;;;12.57;9.45;;;;;;;32.89;65.65;100735.94;5043687;28;70204;-41
2022/06/15 11:41:21;;;;;;;11.35;10.20;;;;;;;32.97;65.79;100737.47;5047958;28;65730;-41
2022/06/15 11:43:56;;;;;;;14.38;9.98;;;;;;;32.95;66.05;100737.69;5016169;28;69237;-42
2022/06/15 11:47:05;;;;;;;12.15;10.00;;;;;;;32.86;65.87;100741.84;5038878;28;65431;-41
2022/06/15 11:50:14;;;;;;;15.75;11.30;;;;;;;32.83;65.42;100732.28;5048456;28;70230;-43
2022/06/15 11:52:56;;;;;;;13.90;10.93;;;;;;;32.82;64.70;100727.06;5051293;28;66121;-41
2022/06/15 11:55:52;;;;;;;12.82;11.55;;;;;;;32.74;64.77;100733.69;5052821;28;70039;-42
2022/06/15 11:58:36;;;;;;;17.95;12.95;;;;;;;32.74;64.97;100722.84;5053147;28;65911;-40
2022/06/15 12:01:16;;;;;;;35.22;15.27;;;;;;;32.88;64.66;100748.69;5055790;28;70241;-39
2022/06/15 12:04:15;;;;;;;28.83;16.98;;;;;;;32.77;63.85;100756.84;5030468;28;65985;-39
2022/06/15 12:07:10;;;;;;;25.35;16.65;;;;;;;32.57;63.95;100738.16;5049350;28;70060;-40
2022/06/15 12:09:54;;;;;;;25.42;16.05;;;;;;;32.81;63.61;100774.31;5037085;28;66144;-41
2022/06/15 12:12:54;;;;;;;24.08;15.50;;;;;;;32.63;63.89;100776.09;5044528;28;69990;-41
2022/06/15 12:15:46;;;;;;;19.27;14.25;;;;;;;32.66;64.13;100778.34;5050448;27;64966;-39
2022/06/15 12:18:42;;;;;;;18.02;12.82;;;;;;;32.73;63.94;100772.78;5026082;28;69932;-40
2022/06/15 12:21:37;;;;;;;22.80;13.52;;;;;;;32.67;64.08;100776.44;5026022;28;65936;-40
2022/06/15 12:24:33;;;;;;;24.17;14.40;;;;;;;32.64;64.23;100776.91;5019077;28;70263;-39
2022/06/15 12:27:35;;;;;;;13.27;11.80;;;;;;;32.63;64.03;100780.69;5047765;28;66292;-40
2022/06/15 12:30:50;;;;;;;13.52;10.27;;;;;;;32.60;64.11;100781.16;5028559;28;69406;-42
2022/06/15 12:33:28;;;;;;;12.25;10.82;;;;;;;32.67;63.95;100809.03;5025415;28;65400;-40